Terminal Aerodrome Forecast
Issued by NWS

Current Version | Previous Version | Text Only | Print | Product List | Glossary On
Versions: 1 2 3 4 5 6 7 8 9 10 11 12 13 14 15 16 17 18 19 20 21 22 23 24 25 26 27 28 29 30 31 32 33 34 35 36 37 38 39 40 41 42 43 44 45
000
FTAK31 PANC 260537
TAFADL
TAF
PADL 260537Z 2606/2706 19009KT P6SM -SHSN FEW008 SCT025 BKN035
      TEMPO 2606/2608 19009G18KT 6SM -SHSN FEW008 BKN025
     FM260800 17008G16KT 2SM -SN BR SCT003 BKN005 OVC015
     FM261400 18010KT P6SM VCSH SCT005 BKN012
     FM261800 21007KT P6SM SCT005 BKN012
      AMD LTD TO CLD VIS AND WIND 2607/2616=

USA.gov is the U.S. government's official web portal to all federal, state and local government web resources and services.